Time;durP1;ratioP1;P1;durP2;ratioP2;P2;SDS_P1;SDS_P2;PMS_P1;PMS_P2;Temp;Humidity;BMP_temperature;BMP_pressure;BME280_temperature;BME280_humidity;BME280_pressure;Samples;Min_cycle;Max_cycle;Signal;HPM_P1;HPM_P2
2022/09/04 00:06:27;;;;;;;10.75;7.45;;;;;;;12.12;71.82;100469.34;30749593;28;96759;-62
2022/09/04 00:21:33;;;;;;;9.70;6.63;;;;;;;12.05;72.06;100471.06;30747690;28;96784;-63
2022/09/04 00:36:37;;;;;;;9.10;5.80;;;;;;;12.05;72.94;100472.91;30745811;28;96657;-63
2022/09/04 00:51:53;;;;;;;10.07;6.53;;;;;;;11.93;72.38;100480.41;30745255;28;96828;-63
2022/09/04 01:07:43;;;;;;;13.03;8.97;;;;;;;11.74;73.01;100494.97;30744230;28;97801;-63
2022/09/04 01:22:58;;;;;;;9.93;6.40;;;;;;;11.66;73.31;100498.50;30749723;28;96701;-62
2022/09/04 01:38:10;;;;;;;8.57;6.30;;;;;;;11.69;73.69;100487.50;30740973;28;96865;-63
2022/09/04 01:53:25;;;;;;;13.13;8.10;;;;;;;11.64;73.51;100492.50;30739842;28;96743;-62
2022/09/04 02:08:35;;;;;;;10.20;6.80;;;;;;;11.46;74.31;100493.50;30738541;28;96993;-62
2022/09/04 02:23:43;;;;;;;17.00;8.57;;;;;;;11.26;74.67;100486.88;30736481;28;96737;-62
2022/09/04 02:39:16;;;;;;;12.87;7.60;;;;;;;11.13;75.34;100477.53;30733910;28;96746;-63
2022/09/04 02:54:51;;;;;;;12.93;8.00;;;;;;;10.99;75.51;100491.56;30733998;28;96789;-62
2022/09/04 03:10:17;;;;;;;9.20;7.10;;;;;;;10.91;75.63;100488.88;30732576;28;96647;-63
2022/09/04 03:25:48;;;;;;;12.67;6.47;;;;;;;10.83;76.44;100484.38;30732004;28;96619;-63
2022/09/04 03:40:48;;;;;;;9.27;7.13;;;;;;;10.72;76.70;100485.50;30730307;28;96715;-63
2022/09/04 03:56:19;;;;;;;9.70;6.45;;;;;;;10.65;76.74;100500.50;30728809;28;96729;-63
2022/09/04 04:11:42;;;;;;;9.17;6.40;;;;;;;10.96;77.37;100503.38;30733492;28;96787;-63
2022/09/04 04:26:59;;;;;;;9.33;6.17;;;;;;;11.27;76.89;100520.53;30746793;28;97047;-63
2022/09/04 04:42:27;;;;;;;8.87;5.60;;;;;;;11.40;76.72;100522.69;30746239;28;96780;-62
2022/09/04 04:57:45;;;;;;;10.70;6.57;;;;;;;11.33;76.32;100546.53;30743354;28;96910;-63
2022/09/04 05:13:04;;;;;;;9.23;5.83;;;;;;;11.72;76.42;100561.88;30742849;28;96689;-63
2022/09/04 05:28:30;;;;;;;10.23;5.70;;;;;;;12.70;76.43;100575.97;30740686;28;96689;-62
2022/09/04 05:43:58;;;;;;;8.20;5.67;;;;;;;13.13;74.49;100576.38;30739327;28;96775;-63
2022/09/04 05:59:10;;;;;;;10.43;6.00;;;;;;;13.06;74.15;100604.03;30737063;28;96754;-62
2022/09/04 06:14:38;;;;;;;11.97;5.33;;;;;;;13.90;73.98;100605.91;30736300;28;97473;-62
2022/09/04 06:30:00;;;;;;;7.40;5.07;;;;;;;14.64;72.14;100603.28;30731334;28;96707;-61
2022/09/04 06:45:10;;;;;;;7.60;4.90;;;;;;;15.20;70.58;100618.78;30733013;28;96738;-62
2022/09/04 07:00:13;;;;;;;7.13;5.03;;;;;;;15.50;69.56;100632.09;30730926;28;96728;-62
2022/09/04 07:15:20;;;;;;;5.30;4.17;;;;;;;16.23;68.52;100650.69;30816117;28;97731;-64
2022/09/04 07:30:24;;;;;;;7.07;4.87;;;;;;;17.38;66.47;100650.22;30831847;28;97265;-61
2022/09/04 07:45:32;;;;;;;8.50;4.50;;;;;;;18.83;64.11;100662.16;30766292;28;97053;-62
2022/09/04 08:00:49;;;;;;;7.23;4.83;;;;;;;19.77;61.10;100667.06;30868611;28;97516;-61
2022/09/04 08:16:06;;;;;;;6.07;4.00;;;;;;;20.88;56.15;100669.19;30866308;28;97076;-60
2022/09/04 08:31:23;;;;;;;7.83;4.17;;;;;;;22.39;53.14;100705.34;30864459;28;97311;-61
2022/09/04 08:46:28;;;;;;;7.57;4.30;;;;;;;24.16;49.01;100715.59;30858688;28;98981;-65
2022/09/04 09:01:31;;;;;;;5.73;4.03;;;;;;;26.26;43.70;100728.41;30858185;28;96965;-67
2022/09/04 09:16:42;;;;;;;4.30;3.40;;;;;;;37.79;26.92;100734.44;30861394;28;96762;-65
2022/09/04 09:32:07;;;;;;;4.87;3.23;;;;;;;44.31;17.45;100730.59;30860386;28;97251;-65
2022/09/04 09:47:32;;;;;;;5.00;2.90;;;;;;;47.37;15.20;100741.56;30858407;28;97543;-64
2022/09/04 10:03:07;;;;;;;4.67;2.93;;;;;;;47.32;13.61;100740.00;30857364;28;97083;-66
2022/09/04 10:19:03;;;;;;;5.20;2.80;;;;;;;49.81;11.12;100725.44;30852376;28;97691;-67
2022/09/04 10:34:26;;;;;;;3.63;2.57;;;;;;;50.37;11.63;100730.59;30852773;28;97329;-67
2022/09/04 10:49:47;;;;;;;3.17;2.53;;;;;;;42.80;15.97;100726.81;30851761;28;97488;-66
2022/09/04 11:05:10;;;;;;;5.30;2.50;;;;;;;48.76;11.21;100718.31;30853624;28;97464;-67
2022/09/04 11:20:35;;;;;;;4.23;2.50;;;;;;;49.84;10.89;100713.25;30859816;28;97242;-62
2022/09/04 11:36:23;;;;;;;5.63;2.53;;;;;;;51.27;9.77;100698.38;30855508;28;97613;-62
2022/09/04 11:51:39;;;;;;;5.27;2.67;;;;;;;45.90;12.51;100687.94;30902870;28;97326;-63
2022/09/04 12:06:57;;;;;;;3.17;2.40;;;;;;;39.84;16.88;100690.72;30912396;28;97851;-63
2022/09/04 12:22:18;;;;;;;3.00;2.40;;;;;;;36.62;20.04;100681.19;30922829;28;96835;-63
2022/09/04 12:37:42;;;;;;;3.57;2.10;;;;;;;34.63;22.38;100679.91;30904873;28;96839;-64
2022/09/04 12:52:54;;;;;;;5.57;2.13;;;;;;;33.23;23.08;100684.56;30829532;28;98317;-61
2022/09/04 13:08:06;;;;;;;2.37;1.50;;;;;;;31.78;25.16;100691.25;30801904;28;96947;-62
2022/09/04 13:23:24;;;;;;;2.17;1.70;;;;;;;30.53;26.65;100696.78;30792142;28;97161;-65
2022/09/04 13:38:52;;;;;;;2.73;1.40;;;;;;;30.14;27.00;100709.53;30837198;28;97448;-65
2022/09/04 13:54:20;;;;;;;2.93;1.63;;;;;;;29.24;28.98;100717.03;30856820;28;97454;-65
2022/09/04 14:09:20;;;;;;;3.10;1.90;;;;;;;28.72;29.78;100721.91;30854371;28;97085;-62
2022/09/04 14:24:31;;;;;;;2.22;1.40;;;;;;;27.60;30.98;100724.44;30856291;28;96809;-61
2022/09/04 14:39:54;;;;;;;3.03;1.53;;;;;;;26.82;32.17;100728.81;30855032;28;96690;-61
2022/09/04 14:54:56;;;;;;;2.47;1.70;;;;;;;26.12;33.58;100738.97;30852384;28;96951;-63
2022/09/04 15:10:09;;;;;;;3.80;1.97;;;;;;;25.19;35.65;100735.28;30852942;28;96750;-62
2022/09/04 15:25:25;;;;;;;6.40;1.80;;;;;;;24.31;37.64;100738.72;30845197;28;96704;-62
2022/09/04 15:40:56;;;;;;;4.03;2.07;;;;;;;23.74;39.49;100726.88;30840596;28;96793;-62
2022/09/04 15:56:25;;;;;;;3.63;1.80;;;;;;;23.41;40.08;100725.72;30794828;28;97404;-62
2022/09/04 16:11:26;;;;;;;3.03;2.00;;;;;;;22.98;41.31;100746.84;30832333;28;97253;-62
2022/09/04 16:26:29;;;;;;;3.53;1.90;;;;;;;22.81;42.22;100748.63;30855730;28;97534;-63
2022/09/04 16:41:30;;;;;;;3.17;1.87;;;;;;;22.25;43.71;100767.13;30854282;28;97611;-65
2022/09/04 16:56:52;;;;;;;3.73;2.20;;;;;;;21.85;44.86;100779.44;30853796;28;97039;-62
2022/09/04 17:11:57;;;;;;;3.87;2.43;;;;;;;21.32;46.35;100780.94;30836506;28;97477;-62
2022/09/04 17:27:06;;;;;;;4.97;2.53;;;;;;;20.73;47.62;100792.19;30752224;28;97246;-62
2022/09/04 17:42:38;;;;;;;5.40;2.57;;;;;;;19.91;49.50;100814.66;30855590;28;96735;-61
2022/09/04 17:57:48;;;;;;;4.57;2.43;;;;;;;19.29;51.08;100838.59;30857285;28;97310;-62
2022/09/04 18:13:00;;;;;;;3.77;2.60;;;;;;;18.80;52.29;100856.09;30855257;28;96691;-64
2022/09/04 18:28:04;;;;;;;4.33;2.60;;;;;;;18.41;53.87;100872.91;30853275;28;97486;-62
2022/09/04 18:43:13;;;;;;;4.27;2.70;;;;;;;18.10;54.86;100884.25;30842234;28;97153;-61
2022/09/04 18:58:13;;;;;;;7.73;3.27;;;;;;;17.85;55.96;100914.41;30841633;28;97839;-64
2022/09/04 19:13:29;;;;;;;5.45;4.00;;;;;;;17.63;57.19;100918.22;30838095;28;97156;-61
2022/09/04 19:28:43;;;;;;;6.13;3.27;;;;;;;17.52;58.21;100915.06;30806327;28;96715;-62
2022/09/04 19:43:51;;;;;;;5.17;3.80;;;;;;;17.20;58.87;100922.72;30808202;28;97039;-62
2022/09/04 19:59:02;;;;;;;5.60;3.30;;;;;;;16.90;60.24;100930.97;30805293;28;96941;-61
2022/09/04 20:14:21;;;;;;;4.67;3.23;;;;;;;16.57;61.04;100928.78;30781298;28;97444;-62
2022/09/04 20:29:41;;;;;;;5.43;3.77;;;;;;;16.29;62.15;100928.69;30745778;28;97368;-62
2022/09/04 20:44:49;;;;;;;5.50;3.80;;;;;;;15.99;62.67;100931.47;30742659;28;96829;-62
2022/09/04 20:59:59;;;;;;;7.70;5.30;;;;;;;15.76;63.73;100939.59;30742217;28;96769;-62
2022/09/04 21:15:14;;;;;;;5.27;3.67;;;;;;;15.54;64.40;100955.63;30742737;28;96760;-62
2022/09/04 21:30:39;;;;;;;5.77;3.87;;;;;;;15.36;65.45;100973.91;30741610;28;96774;-62
2022/09/04 21:45:58;;;;;;;6.10;4.50;;;;;;;15.18;65.73;100987.66;30739631;28;97669;-62
2022/09/04 22:01:12;;;;;;;9.23;4.87;;;;;;;15.07;66.27;100996.97;30739047;28;96765;-62
2022/09/04 22:16:38;;;;;;;6.43;4.50;;;;;;;15.19;66.66;101000.91;30738137;28;96722;-62
2022/09/04 22:32:01;;;;;;;8.07;4.90;;;;;;;15.21;66.77;100995.34;30735768;28;97116;-62
2022/09/04 22:47:24;;;;;;;6.53;4.80;;;;;;;15.29;66.76;101015.94;30735141;28;96868;-62
2022/09/04 23:02:31;;;;;;;7.43;4.67;;;;;;;15.34;67.16;101018.91;30733951;28;97029;-61
2022/09/04 23:17:34;;;;;;;8.03;4.60;;;;;;;15.24;66.95;101003.06;30741833;28;96665;-62
2022/09/04 23:32:53;;;;;;;5.87;4.67;;;;;;;14.87;67.47;101002.00;30753211;28;97420;-62
2022/09/04 23:48:47;;;;;;;8.60;5.27;;;;;;;14.67;68.13;101001.66;30751698;28;96824;-62
